Latest Weather Observations for West Wyalong

IDN60801

Issued at 3:22 am EDT Saturday 19 October 2019 (issued every 10 minutes, with the page automatically refreshed every 10 minutes)

About weather observations | Map of weather stations | Latest weather observations for NSW | Other Formats
Station Details ID: 050017 Name: WEST WYALONG AIRPORT AWS Lat: -33.94 Lon: 147.20 Height: 257.0 m
Data from the previous 72 hours. | See also: Recent months at West Wyalong
Date/Time
EDT
Temp
°C
App
Temp
°C
Dew
Point
°C
Rel
Hum
%
Delta-T
°C
Wind Press
QNH
hPa
Press
MSL
hPa
Rain since
9am
mm
Dir  Spd
km/h
Gust
km/h
Spd
kts
Gust
kts
19/03:00am 14.4 9.2 -5.9 24 7.6 SW 13 17 7 9 1016.1 1015.6 0.0
19/02:30am 16.1 9.8 -5.6 22 8.3 WSW 19 24 10 13 1016.2 1015.7 0.0
19/02:00am 16.5 10.1 -7.2 19 8.8 W 19 22 10 12 1016.2 1015.7 0.0
19/01:30am 14.7 9.4 -7.4 21 8.0 NNW 13 17 7 9 1015.7 1015.2 0.0
19/01:00am 14.7 9.3 -8.0 20 8.1 NNW 13 17 7 9 1015.3 1014.8 0.0
19/12:30am 15.4 10.0 -8.1 19 8.5 NNW 13 17 7 9 1015.4 1014.9 0.0
19/12:00am 16.0 10.7 -7.6 19 8.7 NNW 13 15 7 8 1015.5 1015.0 0.0
 
Date/Time
EDT
Temp
°C
App
Temp
°C
Dew
Point
°C
Rel
Hum
%
Delta-T
°C
Wind Press
QNH
hPa
Press
MSL
hPa
Rain since
9am
mm
Dir  Spd
km/h
Gust
km/h
Spd
kts
Gust
kts
18/11:30pm 15.6 10.6 -7.9 19 8.5 NNW 11 13 6 7 1015.7 1015.2 0.0
18/11:00pm 16.0 11.1 -7.6 19 8.7 NNW 11 13 6 7 1015.9 1015.4 0.0
18/10:30pm 17.0 12.0 -8.2 17 9.2 NNW 11 15 6 8 1016.1 1015.6 0.0
18/10:00pm 17.7 12.7 -8.4 16 9.6 NNW 11 15 6 8 1016.3 1015.8 0.0
18/09:30pm 17.8 12.9 -7.5 17 9.5 NW 11 13 6 7 1016.3 1015.8 0.0
18/09:00pm 18.4 13.4 -7.8 16 9.8 NW 11 13 6 7 1016.2 1015.7 0.0
18/08:30pm 19.1 14.1 -8.1 15 10.2 NW 11 15 6 8 1015.9 1015.4 0.0
18/08:00pm 20.1 14.7 -8.2 14 10.7 NW 13 17 7 9 1015.7 1015.2 0.0
18/07:30pm 21.2 15.8 -8.3 13 11.3 NW 13 20 7 11 1015.5 1015.0 0.0
18/07:00pm 22.2 16.0 -8.5 12 11.9 WNW 17 22 9 12 1015.2 1014.7 0.0
18/06:30pm 22.9 16.6 -10.3 10 12.5 WNW 17 24 9 13 1015.1 1014.6 0.0
18/06:00pm 23.5 17.2 -9.8 10 12.7 NW 17 28 9 15 1015.1 1014.6 0.0
18/05:30pm 23.7 17.4 -9.7 10 12.8 WNW 17 24 9 13 1015.2 1014.7 0.0
18/05:00pm 23.5 16.8 -8.6 11 12.5 W 20 30 11 16 1015.5 1015.0 0.0
18/04:30pm 23.6 17.0 -9.8 10 12.8 WNW 19 28 10 15 1015.8 1015.3 0.0
18/04:00pm 23.8 17.6 -8.4 11 12.7 WNW 17 26 9 14 1016.0 1015.5 0.0
18/03:30pm 23.0 16.9 -7.9 12 12.2 WNW 17 28 9 15 1016.5 1016.0 0.0
18/03:00pm 22.4 17.1 -7.3 13 11.8 NNW 13 26 7 14 1017.1 1016.6 0.0
18/02:30pm 21.6 15.5 -8.0 13 11.5 W 17 28 9 15 1017.8 1017.3 0.0
18/02:00pm 21.3 15.2 -8.2 13 11.3 NW 17 24 9 13 1018.2 1017.7 0.0
18/01:30pm 21.4 16.3 -5.4 16 10.9 WNW 13 26 7 14 1018.4 1017.9 0.0
18/01:00pm 20.5 13.9 -8.8 13 11.0 WSW 19 28 10 15 1019.1 1018.6 0.0
18/12:30pm 20.2 15.4 -2.8 21 9.8 WSW 13 28 7 15 1019.6 1019.1 0.0
18/12:00pm 19.7 13.9 -4.5 19 9.8 SW 17 33 9 18 1019.8 1019.3 0.0
18/11:30am 18.6 13.6 -4.1 21 9.2 SW 13 24 7 13 1020.2 1019.8 0.0
18/11:00am 18.0 12.5 -5.3 20 9.2 WSW 15 28 8 15 1020.6 1020.2 0.0
18/10:30am 17.0 12.1 -3.1 25 8.2 WSW 13 24 7 13 1020.7 1020.3 0.0
18/10:00am 16.3 12.0 -1.3 30 7.4 WSW 11 20 6 11 1020.8 1020.4 0.0
18/09:30am 14.9 11.4 1.4 40 6.0 WSW 9 15 5 8 1020.9 1020.5 0.0
18/09:00am 14.3 12.1 3.2 47 5.0 E 4 7 2 4 1020.7 1020.3 0.0
18/08:30am 13.7 12.0 4.0 52 4.5 SE 2 6 1 3 1020.4 1020.0 0.0
18/08:00am 11.1 8.2 1.6 52 4.1 WSW 6 7 3 4 1020.2 1019.8 0.0
18/07:30am 8.0 6.1 0.3 58 3.1 CALM 0 0 0 0 1019.9 1019.4 0.0
18/07:00am 4.7 2.5 -1.7 63 2.4 CALM 0 0 0 0 1019.5 1019.0 0.0
18/06:30am 4.2 2.0 -1.4 67 2.1 CALM 0 0 0 0 1019.2 1018.7 0.0
18/06:00am 4.1 0.7 -2.1 64 2.2 SW 6 7 3 4 1018.8 1018.3 0.0
18/05:30am 4.3 0.7 -2.3 62 2.4 W 7 7 4 4 1018.5 1018.0 0.0
18/05:00am 6.8 3.4 -0.9 58 3.0 W 7 9 4 5 1018.1 1017.6 0.0
18/04:30am 6.9 2.7 -0.8 58 3.0 W 11 11 6 6 1018.0 1017.5 0.0
18/04:00am 6.6 3.1 -1.1 58 2.9 W 7 9 4 5 1017.9 1017.4 0.0
18/03:30am 7.4 3.5 -1.8 52 3.5 WSW 9 11 5 6 1018.0 1017.5 0.0
18/03:00am 8.5 4.7 -1.0 51 3.7 W 9 11 5 6 1017.9 1017.4 0.0
18/02:30am 8.5 5.0 -1.3 50 3.8 WSW 7 9 4 5 1018.0 1017.5 0.0
18/02:00am 9.7 5.4 -1.6 45 4.4 WSW 11 15 6 8 1018.2 1017.7 0.0
18/01:30am 10.6 6.0 -1.4 43 4.8 W 13 15 7 8 1018.5 1018.0 0.0
18/01:00am 10.7 6.1 -1.4 43 4.8 WNW 13 15 7 8 1018.6 1018.1 0.0
18/12:30am 9.3 5.3 -2.0 45 4.4 W 9 9 5 5 1018.6 1018.1 0.0
18/12:00am 9.2 5.6 -2.4 44 4.4 W 7 9 4 5 1018.5 1018.0 0.0
 
Date/Time
EDT
Temp
°C
App
Temp
°C
Dew
Point
°C
Rel
Hum
%
Delta-T
°C
Wind Press
QNH
hPa
Press
MSL
hPa
Rain since
9am
mm
Dir  Spd
km/h
Gust
km/h
Spd
kts
Gust
kts
17/11:30pm 9.9 7.2 -2.7 41 4.8 SW 2 6 1 3 1018.3 1017.8 0.0
17/11:00pm 11.3 6.9 -2.1 39 5.3 W 11 13 6 7 1018.3 1017.8 0.0
17/10:30pm 11.3 6.9 -2.5 38 5.4 W 11 11 6 6 1018.1 1017.6 0.0
17/10:00pm 12.2 8.1 -2.8 35 5.9 W 9 13 5 7 1017.8 1017.3 0.0
17/09:30pm 13.4 9.4 -2.5 33 6.3 WSW 9 11 5 6 1017.7 1017.2 0.0
17/09:00pm 14.4 8.5 -2.5 31 6.8 WSW 19 22 10 12 1017.1 1016.6 0.0
17/08:30pm 14.8 8.9 -2.6 30 7.0 WSW 19 26 10 14 1016.7 1016.3 0.0
17/08:00pm 15.3 8.0 -2.6 29 7.3 WSW 26 35 14 19 1016.3 1015.8 0.0
17/07:30pm 15.8 8.2 -2.2 29 7.4 WSW 28 35 15 19 1015.9 1015.4 0.0
17/07:00pm 16.5 8.1 -2.5 27 7.8 WSW 32 48 17 26 1015.6 1015.1 0.0
17/06:30pm 17.1 8.1 -3.1 25 8.3 WSW 35 46 19 25 1015.1 1014.6 0.0
17/06:05pm 17.5 8.4 -3.3 24 8.5 SW 35 54 19 29 1014.9 1014.4 0.0
17/06:00pm 17.5 8.4 -3.3 24 8.5 WSW 35 44 19 24 1014.8 1014.3 0.0
17/05:30pm 18.2 8.7 -3.8 22 9.0 WSW 37 54 20 29 1014.5 1014.0 0.0
17/05:00pm 18.4 9.0 -3.1 23 8.9 WSW 37 59 20 32 1014.1 1013.6 0.0
17/04:30pm 18.6 8.4 -2.9 23 9.0 WSW 41 63 22 34 1013.8 1013.3 0.0
17/04:05pm 19.0 9.9 -3.2 22 9.2 WSW 35 54 19 29 1013.6 1013.1 0.0
17/04:00pm 19.0 9.3 -2.6 23 9.1 WSW 39 54 21 29 1013.6 1013.1 0.0
17/03:36pm 19.1 9.0 -2.5 23 9.1 WSW 41 59 22 32 1013.6 1013.1 0.0
17/03:30pm 18.8 8.3 -2.7 23 9.0 WSW 43 59 23 32 1013.5 1013.0 0.0
17/03:00pm 18.9 9.6 -2.1 24 8.9 WSW 37 56 20 30 1013.6 1013.1 0.0
17/02:30pm 18.6 9.8 -1.3 26 8.6 WSW 35 54 19 29 1014.0 1013.5 0.0
17/02:25pm 17.8 8.9 -1.9 26 8.3 WSW 35 54 19 29 1014.1 1013.6 0.0
17/02:00pm 18.7 10.0 -0.7 27 8.5 WSW 35 48 19 26 1014.2 1013.7 0.0
17/01:30pm 18.4 9.3 -0.4 28 8.2 WSW 37 57 20 31 1014.4 1013.9 0.0
17/01:01pm 17.8 8.1 -2.5 25 8.5 W 39 67 21 36 1014.3 1013.8 0.0
17/01:00pm 17.8 8.5 -1.9 26 8.3 W 37 50 20 27 1014.4 1013.9 0.0
17/12:30pm 16.7 6.9 -0.5 31 7.4 WSW 41 61 22 33 1014.6 1014.1 0.0
17/12:01pm 16.2 7.8 1.5 37 6.6 WSW 35 59 19 32 1014.6 1014.1 0.0
17/12:00pm 15.8 7.3 1.2 37 6.5 WSW 35 52 19 28 1014.6 1014.1 0.0
17/11:30am 15.3 6.3 0.3 36 6.5 WSW 37 56 20 30 1014.7 1014.2 0.0
17/11:00am 15.0 6.4 0.1 36 6.4 WSW 35 54 19 29 1014.6 1014.1 0.0
17/10:53am 14.9 6.4 0.7 38 6.2 WSW 35 54 19 29 1014.5 1014.0 0.0
17/10:30am 14.8 6.5 2.4 43 5.6 WSW 35 50 19 27 1014.6 1014.1 0.0
17/10:00am 13.8 5.4 3.9 51 4.6 SW 37 52 20 28 1014.2 1013.7 0.0
17/09:30am 13.5 5.0 5.2 57 3.9 WSW 39 54 21 29 1014.0 1013.5 0.0
17/09:00am 13.7 5.8 6.1 60 3.7 WSW 37 48 20 26 1013.6 1013.1 0.8
17/08:30am 13.4 6.3 6.5 63 3.4 SW 33 46 18 25 1013.3 1012.7 0.8
17/08:00am 12.6 5.6 8.3 75 2.2 WSW 35 52 19 28 1012.7 1012.2 0.8
17/07:46am 12.4 6.1 9.1 80 1.7 WSW 32 50 17 27 1012.4 1011.9 0.8
17/07:30am 12.4 7.0 9.4 82 1.5 WSW 28 41 15 22 1012.2 1011.7 0.8
17/07:00am 12.0 8.4 10.6 91 0.7 WSW 20 30 11 16 1011.9 1011.4 0.8
17/06:30am 12.0 7.2 10.4 90 0.8 WSW 26 33 14 18 1011.2 1010.7 0.8
17/06:00am 11.9 8.9 10.8 93 0.6 WSW 17 22 9 12 1010.8 1010.3 0.8
17/05:30am 10.4 8.7 9.9 97 0.3 W 9 11 5 6 1010.5 1010.0 0.8
17/05:00am 9.1 8.8 8.5 96 0.3 CALM 0 0 0 0 1010.3 1009.8 0.8
17/04:30am 9.1 8.7 8.3 95 0.4 CALM 0 4 0 2 1010.1 1009.6 0.8
17/04:00am 9.4 9.1 8.6 95 0.4 CALM 0 6 0 3 1010.1 1009.6 0.8
17/03:30am 9.6 7.6 8.8 95 0.4 SW 9 11 5 6 1010.2 1009.7 0.8
17/03:00am 10.1 9.9 8.9 92 0.6 CALM 0 0 0 0 1010.1 1009.6 0.8
17/02:30am 10.6 9.4 9.4 92 0.6 W 6 6 3 3 1010.3 1009.8 0.8
17/02:00am 11.2 9.9 9.8 91 0.7 WSW 7 9 4 5 1010.6 1010.1 0.8
17/01:30am 12.1 10.8 10.0 87 1.1 SW 7 9 4 5 1010.9 1010.4 0.8
17/01:00am 12.5 10.9 10.2 86 1.2 SW 9 11 5 6 1011.4 1010.9 0.8
17/12:30am 12.8 10.4 10.0 83 1.5 SW 13 15 7 8 1011.1 1010.6 0.8
17/12:00am 13.4 11.7 9.8 79 1.9 SSW 9 11 5 6 1010.9 1010.4 0.8
 
Date/Time
EDT
Temp
°C
App
Temp
°C
Dew
Point
°C
Rel
Hum
%
Delta-T
°C
Wind Press
QNH
hPa
Press
MSL
hPa
Rain since
9am
mm
Dir  Spd
km/h
Gust
km/h
Spd
kts
Gust
kts
16/11:30pm 14.1 11.9 9.5 74 2.4 SSW 11 15 6 8 1011.2 1010.7 0.8
16/11:00pm 14.6 11.7 9.8 73 2.5 S 15 20 8 11 1011.3 1010.8 0.8
16/10:30pm 14.1 12.0 9.7 75 2.3 SE 11 19 6 10 1010.5 1010.0 0.8
16/10:00pm 14.7 12.2 9.7 72 2.6 SSE 13 19 7 10 1010.7 1010.2 0.8
16/09:30pm 15.2 11.9 9.6 69 2.9 SSE 17 22 9 12 1010.8 1010.3 0.8
16/09:00pm 16.4 12.5 9.3 63 3.7 S 20 28 11 15 1011.0 1010.5 0.8
16/08:30pm 16.9 16.2 12.0 73 2.7 SW 7 9 4 5 1009.9 1009.3 0.8
16/08:00pm 17.5 18.0 11.5 68 3.3 CALM 0 0 0 0 1009.6 1009.0 0.8
16/07:30pm 18.5 17.7 11.8 65 3.7 N 7 11 4 6 1009.1 1008.5 0.8
16/07:00pm 19.1 16.5 11.9 63 4.0 NNE 17 22 9 12 1008.5 1008.0 0.8
16/06:30pm 19.3 16.9 12.6 65 3.8 NNE 17 24 9 13 1008.9 1008.3 0.8
16/06:00pm 19.6 17.4 12.1 62 4.2 N 15 22 8 12 1009.1 1008.5 0.8
16/05:30pm 19.3 16.5 12.6 65 3.8 N 19 22 10 12 1009.1 1008.5 0.8
16/05:00pm 18.6 16.6 12.8 69 3.3 N 15 20 8 11 1009.3 1008.7 0.8
16/04:30pm 18.2 13.6 12.2 68 3.4 NNW 28 41 15 22 1010.8 1010.3 0.4
16/04:06pm 21.0 15.7 11.1 53 5.5 NNW 30 50 16 27 1010.1 1009.6 0.0
16/04:00pm 21.8 17.5 10.9 50 6.1 NNW 24 35 13 19 1009.9 1009.3 0.0
16/03:30pm 21.7 18.0 11.4 52 5.8 WNW 22 35 12 19 1010.6 1010.1 0.0
16/03:00pm 23.5 19.5 9.1 40 7.9 WNW 20 32 11 17 1010.6 1010.1 0.0
16/02:30pm 23.3 19.5 9.0 40 7.8 NNW 19 30 10 16 1010.1 1009.6 0.0
16/02:00pm 22.9 19.5 9.0 41 7.5 NNW 17 28 9 15 1010.1 1009.6 0.0
16/01:30pm 20.9 17.1 9.8 49 6.0 NNW 20 32 11 17 1009.9 1009.3 0.0
16/01:00pm 21.3 16.5 7.5 41 7.2 NNW 22 37 12 20 1010.9 1010.4 0.0
16/12:30pm 21.1 17.1 8.4 44 6.7 NW 19 33 10 18 1012.2 1011.7 0.0
16/12:00pm 20.9 15.1 4.5 34 8.1 N 24 37 13 20 1011.9 1011.4 0.0
16/11:30am 23.6 18.0 1.3 23 10.5 NNW 20 28 11 15 1012.4 1011.9 0.0
16/11:00am 23.2 19.8 2.1 25 10.1 NNW 9 13 5 7 1012.7 1012.2 0.0
16/10:30am 22.9 19.9 1.9 25 10.0 W 7 11 4 6 1013.2 1012.6 0.0
16/10:00am 22.6 20.5 1.6 25 9.9 NE 2 7 1 4 1012.7 1012.2 0.0
16/09:30am 21.5 18.0 1.2 26 9.4 WNW 9 17 5 9 1013.0 1012.4 0.0
16/09:00am 20.4 17.2 0.8 27 8.9 WNW 7 9 4 5 1013.1 1012.5 0.0
16/08:30am 19.9 17.9 -0.1 26 8.9 CALM 0 4 0 2 1012.1 1011.6 0.0
16/08:00am 19.2 15.5 -0.2 27 8.6 N 9 11 5 6 1011.7 1011.2 0.0
16/07:30am 17.4 14.1 -1.3 28 8.0 N 6 7 3 4 1011.6 1011.1 0.0
16/07:00am 15.4 12.9 -1.2 32 7.0 N 2 6 1 3 1011.4 1010.9 0.0
16/06:30am 15.7 12.1 -1.8 30 7.3 NE 7 9 4 5 1011.0 1010.5 0.0
16/06:00am 15.3 13.0 -2.2 30 7.2 CALM 0 0 0 0 1011.1 1010.6 0.0
16/05:30am 16.0 13.7 -2.5 28 7.6 CALM 0 0 0 0 1011.3 1010.8 0.0
16/05:00am 16.8 13.1 -2.8 26 8.1 WSW 7 11 4 6 1011.6 1011.1 0.0
16/04:30am 17.7 13.2 -3.1 24 8.6 SW 11 13 6 7 1011.7 1011.2 0.0
16/04:00am 17.6 13.2 -2.6 25 8.4 SW 11 11 6 6 1011.5 1011.0 0.0
16/03:30am 17.3 13.2 -2.9 25 8.3 SW 9 11 5 6 1011.6 1011.1 0.0

Other formats

Comma delimited format used in spreadsheet applications
http://www.bom.gov.au/fwo/IDN60801/IDN60801.95709.axf

JavaScript Object Notation format (JSON) in row-major order
http://www.bom.gov.au/fwo/IDN60801/IDN60801.95709.json

Data quality

Most of these data are generated automatically and are frequently updated. Quality checks on data are not normally performed. It is possible for incorrect values to appear. Refer to information at About Latest Weather Observations and please check the disclaimer before using these data.